Time;durP1;ratioP1;P1;durP2;ratioP2;P2;SDS_P1;SDS_P2;PMS_P1;PMS_P2;Temp;Humidity;BMP_temperature;BMP_pressure;BME280_temperature;BME280_humidity;BME280_pressure;Samples;Min_cycle;Max_cycle;Signal;HPM_P1;HPM_P2
2023/08/07 00:01:37;;;;;;;6.47;2.85;;;19.40;99.90;;;;;;4881402;29;20107;-69
2023/08/07 00:04:03;;;;;;;9.32;2.40;;;19.10;99.90;;;;;;4881408;29;20501;-69
2023/08/07 00:06:28;;;;;;;4.18;2.15;;;19.20;99.90;;;;;;4881111;29;20045;-69
2023/08/07 00:08:54;;;;;;;4.63;2.25;;;19.20;99.90;;;;;;4865679;29;20580;-69
2023/08/07 00:11:19;;;;;;;4.03;2.28;;;19.10;99.90;;;;;;4880850;29;20056;-68
2023/08/07 00:13:45;;;;;;;4.20;2.28;;;19.00;99.90;;;;;;4881121;29;20032;-69
2023/08/07 00:16:11;;;;;;;7.65;2.30;;;19.00;99.90;;;;;;4881120;29;20135;-69
2023/08/07 00:18:36;;;;;;;4.60;2.20;;;19.10;99.90;;;;;;4880998;29;20049;-69
2023/08/07 00:21:02;;;;;;;4.40;2.13;;;19.00;99.90;;;;;;4880792;29;20047;-69
2023/08/07 00:23:28;;;;;;;5.50;2.58;;;19.70;99.90;;;;;;4883564;29;20048;-69
2023/08/07 00:25:53;;;;;;;5.38;2.10;;;19.20;99.90;;;;;;4898457;29;20060;-68
2023/08/07 00:28:19;;;;;;;6.22;1.80;;;19.10;99.90;;;;;;4897643;29;20537;-69
2023/08/07 00:30:44;;;;;;;5.75;1.98;;;18.90;99.90;;;;;;4880734;29;20037;-69
2023/08/07 00:33:11;;;;;;;10.20;2.17;;;19.10;99.90;;;;;;4880748;29;20044;-69
2023/08/07 00:35:36;;;;;;;9.10;2.78;;;19.20;99.90;;;;;;4879688;29;20040;-69
2023/08/07 00:38:03;;;;;;;14.30;2.90;;;18.90;99.90;;;;;;4897365;29;20508;-69
2023/08/07 00:40:35;;;;;;;14.80;3.10;;;18.80;99.90;;;;;;4897348;29;20497;-69
2023/08/07 00:43:01;;;;;;;16.95;3.17;;;19.50;99.90;;;;;;4880326;29;20127;-68
2023/08/07 00:45:26;;;;;;;15.93;2.85;;;18.90;99.90;;;;;;4880742;29;20564;-69
2023/08/07 00:47:52;;;;;;;11.75;3.13;;;19.30;99.90;;;;;;4880376;29;20045;-69
2023/08/07 00:50:18;;;;;;;10.30;2.50;;;19.00;99.90;;;;;;4897033;29;20127;-69
2023/08/07 00:52:44;;;;;;;15.15;2.70;;;19.20;99.90;;;;;;4897157;29;20052;-69
2023/08/07 00:55:10;;;;;;;13.95;3.13;;;19.10;99.90;;;;;;4880388;29;20468;-69
2023/08/07 00:57:36;;;;;;;13.35;3.25;;;18.70;99.90;;;;;;4897207;29;20036;-69
2023/08/07 01:00:02;;;;;;;12.98;2.97;;;18.70;99.90;;;;;;4880458;29;20044;-69
2023/08/07 01:02:28;;;;;;;10.80;2.67;;;18.80;99.90;;;;;;4880045;29;20044;-69
2023/08/07 01:04:54;;;;;;;14.45;2.58;;;19.00;99.90;;;;;;4880167;29;20044;-69
2023/08/07 01:07:19;;;;;;;13.40;2.97;;;18.90;99.90;;;;;;4896922;29;20044;-69
2023/08/07 01:09:45;;;;;;;11.10;2.72;;;18.90;99.90;;;;;;4880036;29;20123;-69
2023/08/07 01:12:17;;;;;;;8.30;2.60;;;18.60;99.90;;;;;;4879877;29;20060;-69
2023/08/07 01:15:07;;;;;;;9.10;2.60;;;18.50;99.90;;;;;;4896947;29;20133;-69
2023/08/07 01:17:34;;;;;;;14.48;3.47;;;18.60;99.90;;;;;;4880073;29;20067;-69
2023/08/07 01:20:02;;;;;;;10.15;2.95;;;18.60;99.90;;;;;;4896361;29;20045;-69
2023/08/07 01:22:27;;;;;;;14.40;2.50;;;18.40;99.90;;;;;;4879144;29;20567;-69
2023/08/07 01:24:53;;;;;;;11.20;2.63;;;18.70;99.90;;;;;;4879839;29;20041;-69
2023/08/07 01:27:18;;;;;;;10.38;3.50;;;18.60;99.90;;;;;;4896443;29;20037;-69
2023/08/07 01:30:09;;;;;;;11.00;2.72;;;18.40;99.90;;;;;;4879847;29;20075;-69
2023/08/07 01:32:41;;;;;;;10.05;3.30;;;18.30;99.90;;;;;;4896618;29;20099;-69
2023/08/07 01:35:08;;;;;;;12.95;3.42;;;18.70;99.90;;;;;;4879574;29;20489;-68
2023/08/07 01:37:38;;;;;;;13.82;3.17;;;18.40;99.90;;;;;;4879751;29;20049;-69
2023/08/07 01:40:06;;;;;;;10.52;2.72;;;18.30;99.90;;;;;;4881601;29;20040;-69
2023/08/07 01:42:32;;;;;;;12.48;3.38;;;18.20;99.90;;;;;;4880167;29;20132;-69
2023/08/07 01:44:58;;;;;;;12.38;2.85;;;18.50;99.90;;;;;;4879741;29;20056;-69
2023/08/07 01:47:23;;;;;;;13.45;3.42;;;18.50;99.90;;;;;;4880692;29;20076;-69
2023/08/07 01:49:49;;;;;;;16.40;3.42;;;18.20;99.90;;;;;;4883394;29;20079;-69
2023/08/07 01:52:15;;;;;;;8.45;2.35;;;18.10;99.90;;;;;;4883474;29;20040;-69
2023/08/07 01:54:40;;;;;;;15.88;3.78;;;18.10;99.90;;;;;;4883112;29;20051;-69
2023/08/07 01:57:06;;;;;;;14.77;2.85;;;18.40;99.90;;;;;;4899917;29;20052;-69
2023/08/07 01:59:32;;;;;;;9.70;2.50;;;18.50;99.90;;;;;;4900371;29;20076;-69
2023/08/07 02:01:57;;;;;;;7.15;2.08;;;18.40;99.90;;;;;;4883398;29;20070;-69
2023/08/07 02:04:23;;;;;;;13.88;3.13;;;18.10;99.90;;;;;;4883616;29;20036;-69
2023/08/07 02:06:48;;;;;;;18.13;2.72;;;18.10;99.90;;;;;;4883134;29;20044;-69
2023/08/07 02:09:14;;;;;;;17.35;3.28;;;18.30;99.90;;;;;;4883172;29;20127;-69
2023/08/07 02:11:39;;;;;;;12.80;2.65;;;18.50;99.90;;;;;;4867378;29;20054;-69
2023/08/07 02:14:05;;;;;;;14.98;2.72;;;18.30;99.90;;;;;;4900040;29;20047;-69
2023/08/07 02:16:31;;;;;;;14.45;3.53;;;18.40;99.90;;;;;;4882956;29;20051;-69
2023/08/07 02:18:56;;;;;;;14.63;3.05;;;18.50;99.90;;;;;;4879869;29;20527;-68
2023/08/07 02:21:22;;;;;;;12.07;2.35;;;;;;;;;;4863881;29;20414;-68
2023/08/07 02:23:48;;;;;;;12.88;2.83;;;18.00;99.90;;;;;;4881158;29;20049;-68
2023/08/07 02:26:13;;;;;;;9.65;2.40;;;18.40;99.90;;;;;;4864279;29;20045;-69
2023/08/07 02:28:39;;;;;;;11.57;2.78;;;18.20;99.90;;;;;;4864314;29;20547;-69
2023/08/07 02:31:05;;;;;;;12.02;2.25;;;18.00;99.90;;;;;;4864259;29;20045;-69
2023/08/07 02:33:30;;;;;;;17.33;3.20;;;18.30;99.90;;;;;;4864066;29;20037;-69
2023/08/07 02:35:56;;;;;;;9.82;2.80;;;18.10;99.90;;;;;;4864167;29;20040;-69
2023/08/07 02:38:22;;;;;;;9.50;2.50;;;18.10;99.90;;;;;;4864224;29;20045;-69
2023/08/07 02:40:48;;;;;;;11.13;2.78;;;18.00;99.90;;;;;;4880902;29;20037;-69
2023/08/07 02:43:13;;;;;;;11.93;2.65;;;18.00;99.90;;;;;;4864113;29;20410;-69
2023/08/07 02:45:39;;;;;;;12.00;2.80;;;18.30;99.90;;;;;;4864578;29;20045;-69
2023/08/07 02:48:05;;;;;;;14.85;2.90;;;18.40;99.90;;;;;;4863926;29;20049;-69
2023/08/07 02:50:32;;;;;;;10.10;2.60;;;18.30;99.90;;;;;;4864113;29;20045;-69
2023/08/07 02:52:59;;;;;;;15.15;3.90;;;18.40;99.90;;;;;;4880441;29;20049;-69
2023/08/07 02:55:24;;;;;;;10.73;2.58;;;18.60;99.90;;;;;;4863922;29;20045;-69
2023/08/07 02:57:50;;;;;;;14.45;3.20;;;18.40;99.90;;;;;;4863438;29;20103;-68
2023/08/07 03:00:15;;;;;;;10.07;2.72;;;18.20;99.90;;;;;;4861044;29;20064;-69
2023/08/07 03:02:41;;;;;;;11.25;3.30;;;18.30;99.90;;;;;;4880190;29;20045;-69
2023/08/07 03:05:07;;;;;;;9.88;3.08;;;18.30;99.90;;;;;;4863812;29;20053;-69
2023/08/07 03:07:33;;;;;;;10.00;3.35;;;;;;;;;;4863268;29;20049;-68
2023/08/07 03:09:59;;;;;;;17.58;3.25;;;18.20;99.90;;;;;;4863660;29;20047;-68
2023/08/07 03:12:25;;;;;;;9.27;2.55;;;;;;;;;;4848073;29;20036;-68
2023/08/07 03:14:51;;;;;;;11.07;3.10;;;;;;;;;;4863704;29;20057;-68
2023/08/07 03:17:17;;;;;;;9.25;3.15;;;;;;;;;;4863479;29;20565;-68
2023/08/07 03:19:43;;;;;;;12.07;3.80;;;18.50;99.90;;;;;;4863193;29;20501;-69
2023/08/07 03:22:09;;;;;;;12.30;3.15;;;18.70;99.90;;;;;;4863051;29;20037;-68
2023/08/07 03:24:35;;;;;;;7.15;2.45;;;18.20;99.90;;;;;;4879947;29;20108;-68
2023/08/07 03:27:00;;;;;;;8.23;2.60;;;18.70;99.90;;;;;;4880025;29;20049;-69
2023/08/07 03:29:26;;;;;;;11.48;3.10;;;18.70;99.90;;;;;;4862905;29;20041;-69
2023/08/07 03:31:52;;;;;;;9.10;3.08;;;18.30;99.90;;;;;;4862992;29;20041;-69
2023/08/07 03:34:17;;;;;;;9.93;3.40;;;18.80;99.90;;;;;;4863288;29;20041;-69
2023/08/07 03:36:44;;;;;;;15.00;4.30;;;18.10;99.90;;;;;;4879751;29;20411;-69
2023/08/07 03:39:11;;;;;;;11.18;4.25;;;18.40;99.90;;;;;;4863065;29;20061;-69
2023/08/07 03:41:37;;;;;;;10.25;3.40;;;18.40;99.90;;;;;;4862880;29;20060;-69
2023/08/07 03:44:03;;;;;;;12.07;3.95;;;18.60;99.90;;;;;;4879920;29;20501;-69
2023/08/07 03:46:29;;;;;;;18.27;4.15;;;18.60;99.90;;;;;;4863114;29;20561;-68
2023/08/07 03:48:54;;;;;;;12.25;3.97;;;18.40;99.90;;;;;;4863029;29;20139;-69
2023/08/07 03:51:20;;;;;;;15.43;4.07;;;18.60;99.90;;;;;;4862699;29;20165;-68
2023/08/07 03:53:45;;;;;;;17.63;4.07;;;18.00;99.90;;;;;;4863357;29;20485;-69
2023/08/07 03:56:11;;;;;;;12.93;3.30;;;18.10;99.90;;;;;;4863150;29;20090;-69
2023/08/07 03:58:37;;;;;;;10.60;3.05;;;;;;;;;;4862710;29;20041;-69
2023/08/07 04:01:03;;;;;;;19.52;4.15;;;18.10;99.90;;;;;;4879604;29;20049;-69
2023/08/07 04:03:28;;;;;;;15.02;3.40;;;18.60;99.90;;;;;;4847169;29;20505;-68
2023/08/07 04:05:55;;;;;;;18.85;3.95;;;18.10;99.90;;;;;;4862515;29;20052;-68
2023/08/07 04:08:23;;;;;;;15.77;4.75;;;18.10;99.90;;;;;;4847156;29;20045;-69
2023/08/07 04:11:03;;;;;;;10.15;3.78;;;18.10;99.90;;;;;;4879078;29;20481;-68
2023/08/07 04:13:29;;;;;;;13.10;3.92;;;18.60;99.90;;;;;;4862616;29;20112;-69
2023/08/07 04:15:55;;;;;;;18.13;4.15;;;18.40;99.90;;;;;;4862258;29;20109;-68
2023/08/07 04:18:22;;;;;;;15.00;3.72;;;18.10;99.90;;;;;;4862971;29;20057;-68
2023/08/07 04:20:56;;;;;;;16.10;3.83;;;18.60;99.90;;;;;;4862213;29;20119;-68
2023/08/07 04:23:22;;;;;;;10.73;3.78;;;18.00;99.90;;;;;;4862042;29;20100;-69
2023/08/07 04:25:49;;;;;;;15.80;3.83;;;;;;;;;;4862226;29;20104;-69
2023/08/07 04:28:15;;;;;;;13.77;4.00;;;18.20;99.90;;;;;;4862326;29;20528;-69
2023/08/07 04:30:41;;;;;;;11.10;3.38;;;17.90;99.90;;;;;;4878881;29;20041;-68
2023/08/07 04:33:08;;;;;;;10.77;3.47;;;18.60;99.90;;;;;;4861923;29;20045;-68
2023/08/07 04:35:34;;;;;;;17.25;4.65;;;18.50;99.90;;;;;;4861769;29;20052;-68
2023/08/07 04:38:00;;;;;;;14.05;3.45;;;;;;;;;;4862071;29;20056;-68
2023/08/07 04:40:26;;;;;;;11.13;3.17;;;17.80;99.90;;;;;;4861837;29;20049;-69
2023/08/07 04:42:52;;;;;;;11.45;3.20;;;18.00;99.90;;;;;;4861871;29;20037;-68
2023/08/07 04:45:17;;;;;;;21.92;5.07;;;17.90;99.90;;;;;;4861907;29;20045;-69
2023/08/07 04:47:43;;;;;;;15.88;3.90;;;18.40;99.90;;;;;;4878476;29;20037;-69
2023/08/07 04:50:09;;;;;;;21.08;4.38;;;17.80;99.90;;;;;;4862023;29;20556;-69
2023/08/07 04:52:35;;;;;;;20.00;4.07;;;17.60;99.90;;;;;;4846035;29;20073;-69
2023/08/07 04:55:01;;;;;;;25.88;5.60;;;;;;;;;;4862035;29;20045;-69
2023/08/07 04:57:27;;;;;;;19.13;4.63;;;18.10;99.90;;;;;;4861766;29;20112;-69
2023/08/07 04:59:53;;;;;;;25.65;5.15;;;18.50;99.90;;;;;;4861818;29;20185;-68
2023/08/07 05:02:19;;;;;;;16.65;4.38;;;18.20;99.90;;;;;;4861742;29;20402;-69
2023/08/07 05:04:45;;;;;;;18.48;4.65;;;17.90;99.90;;;;;;4878346;29;20420;-69
2023/08/07 05:07:11;;;;;;;22.90;4.93;;;;;;;;;;4861740;29;20505;-69
2023/08/07 05:09:36;;;;;;;18.23;4.80;;;17.80;99.90;;;;;;4878177;29;20128;-69
2023/08/07 05:12:02;;;;;;;21.15;5.72;;;18.30;99.90;;;;;;4863680;29;20702;-69
2023/08/07 05:14:29;;;;;;;12.77;4.60;;;18.10;99.90;;;;;;4879465;29;20037;-69
2023/08/07 05:16:55;;;;;;;21.08;4.43;;;18.20;99.90;;;;;;4878589;29;20036;-68
2023/08/07 05:19:21;;;;;;;21.88;5.35;;;17.90;99.90;;;;;;4879107;29;20122;-69
2023/08/07 05:21:49;;;;;;;22.70;4.55;;;18.30;99.90;;;;;;4878404;29;20044;-69
2023/08/07 05:24:15;;;;;;;17.33;4.38;;;18.20;99.90;;;;;;4879216;29;20501;-69
2023/08/07 05:26:41;;;;;;;22.23;4.45;;;18.50;99.90;;;;;;4895458;29;20437;-69
2023/08/07 05:29:07;;;;;;;21.65;5.05;;;;;;;;;;4879101;29;20124;-69
2023/08/07 05:31:33;;;;;;;21.45;4.93;;;18.70;99.90;;;;;;4876715;29;20040;-68
2023/08/07 05:33:59;;;;;;;16.02;3.95;;;18.20;99.90;;;;;;4879056;29;20131;-69
2023/08/07 05:36:25;;;;;;;17.20;5.00;;;;;;;;;;4862243;29;20454;-68
2023/08/07 05:38:51;;;;;;;17.85;5.03;;;18.50;99.90;;;;;;4878888;29;20056;-68
2023/08/07 05:41:16;;;;;;;19.48;4.57;;;18.10;99.90;;;;;;4863595;29;20413;-68
2023/08/07 05:43:42;;;;;;;13.85;3.83;;;18.20;99.90;;;;;;4863378;29;20036;-69
2023/08/07 05:46:08;;;;;;;14.23;4.00;;;18.00;99.90;;;;;;4879015;29;20070;-69
2023/08/07 05:48:34;;;;;;;11.68;3.25;;;;;;;;;;4893576;29;20036;-69
2023/08/07 05:51:00;;;;;;;23.20;5.00;;;;;;;;;;4879172;29;20060;-68
2023/08/07 05:53:25;;;;;;;11.73;4.20;;;17.80;99.90;;;;;;4879076;29;20493;-69
2023/08/07 05:55:51;;;;;;;9.65;3.60;;;18.00;99.90;;;;;;4895875;29;20045;-69
2023/08/07 05:58:17;;;;;;;8.45;3.40;;;17.90;99.90;;;;;;4879482;29;20055;-69
2023/08/07 06:00:43;;;;;;;13.50;4.00;;;;;;;;;;4879213;29;20513;-68
2023/08/07 06:03:09;;;;;;;16.35;4.00;;;;;;;;;;4879736;29;20052;-69
2023/08/07 06:05:35;;;;;;;10.73;3.30;;;;;;;;;;4879543;29;20501;-69
2023/08/07 06:08:01;;;;;;;12.40;3.75;;;;;;;;;;4879457;29;20420;-69
2023/08/07 06:10:27;;;;;;;15.60;3.45;;;;;;;;;;4879486;29;20048;-69
2023/08/07 06:12:53;;;;;;;10.90;3.78;;;18.40;99.90;;;;;;4873226;29;20077;-69
2023/08/07 06:15:19;;;;;;;16.92;4.00;;;;;;;;;;4868004;29;20076;-70
2023/08/07 06:17:45;;;;;;;20.67;5.32;;;18.40;99.90;;;;;;4863838;29;20045;-69
2023/08/07 06:20:13;;;;;;;14.02;3.92;;;18.80;99.90;;;;;;4864806;29;20108;-69
2023/08/07 06:22:38;;;;;;;16.20;5.07;;;18.60;99.90;;;;;;4871147;29;20049;-68
2023/08/07 06:25:05;;;;;;;10.20;3.70;;;18.20;99.90;;;;;;4877348;29;20048;-68
2023/08/07 06:27:31;;;;;;;12.05;3.83;;;18.30;99.90;;;;;;4858557;29;20048;-69
2023/08/07 06:29:57;;;;;;;12.13;3.47;;;18.40;99.90;;;;;;4873277;29;20051;-68
2023/08/07 06:32:25;;;;;;;14.98;3.85;;;18.50;99.90;;;;;;4874256;29;20040;-68
2023/08/07 06:34:51;;;;;;;9.95;2.80;;;;;;;;;;4872640;29;20040;-68
2023/08/07 06:37:16;;;;;;;6.45;2.25;;;18.40;99.90;;;;;;4877832;29;20092;-69
2023/08/07 06:39:42;;;;;;;12.38;3.05;;;;;;;;;;4880404;29;20040;-68
2023/08/07 06:42:08;;;;;;;6.18;2.20;;;;;;;;;;4881124;29;20493;-69
2023/08/07 06:44:34;;;;;;;11.18;2.90;;;;;;;;;;4882305;29;20128;-69
2023/08/07 06:47:00;;;;;;;6.47;2.58;;;18.70;99.90;;;;;;4882004;29;20750;-69
2023/08/07 06:49:25;;;;;;;7.40;2.80;;;18.40;99.90;;;;;;4882025;29;20044;-68
2023/08/07 06:51:51;;;;;;;10.00;2.50;;;;;;;;;;4881854;29;20501;-68
2023/08/07 06:54:17;;;;;;;8.93;2.70;;;18.60;99.90;;;;;;4882115;29;20036;-68
2023/08/07 06:56:44;;;;;;;13.60;2.80;;;18.50;99.90;;;;;;4882291;29;20525;-69
2023/08/07 06:59:10;;;;;;;11.43;3.00;;;;;;;;;;4896633;29;20504;-68
2023/08/07 07:01:36;;;;;;;5.20;1.88;;;18.60;99.90;;;;;;4905534;29;20044;-69
2023/08/07 07:04:01;;;;;;;10.40;3.08;;;18.50;99.90;;;;;;4880608;29;20052;-69
2023/08/07 07:06:27;;;;;;;9.07;2.47;;;;;;;;;;4881926;29;20048;-69
2023/08/07 07:08:54;;;;;;;13.40;3.15;;;;;;;;;;4864526;29;20116;-68
2023/08/07 07:11:22;;;;;;;10.20;2.90;;;18.40;99.90;;;;;;4880721;29;20054;-68
2023/08/07 07:13:47;;;;;;;9.18;2.90;;;18.50;99.90;;;;;;4881530;29;20485;-69
2023/08/07 07:16:13;;;;;;;8.23;2.63;;;18.00;99.90;;;;;;4881228;29;20036;-69
2023/08/07 07:18:39;;;;;;;11.18;3.00;;;17.80;99.90;;;;;;4881298;29;20112;-68
2023/08/07 07:21:05;;;;;;;7.82;2.88;;;18.00;99.90;;;;;;4898066;29;20036;-69
2023/08/07 07:23:30;;;;;;;9.48;3.53;;;18.10;99.90;;;;;;4881207;29;20047;-69
2023/08/07 07:25:57;;;;;;;10.75;3.17;;;;;;;;;;4881346;29;20032;-69
2023/08/07 07:28:23;;;;;;;8.48;2.83;;;17.90;99.90;;;;;;4882222;29;20053;-70
2023/08/07 07:30:50;;;;;;;11.90;3.33;;;18.00;99.90;;;;;;4881760;29;20599;-68
2023/08/07 07:33:16;;;;;;;15.95;3.90;;;18.00;99.90;;;;;;4865942;29;20107;-69
2023/08/07 07:35:42;;;;;;;14.80;3.65;;;18.80;99.90;;;;;;4881335;29;20071;-69
2023/08/07 07:38:08;;;;;;;12.88;3.97;;;18.90;99.90;;;;;;4881127;29;20525;-69
2023/08/07 07:40:36;;;;;;;11.68;3.58;;;18.70;99.90;;;;;;4898391;29;20516;-69
2023/08/07 07:43:03;;;;;;;13.68;4.28;;;19.20;99.90;;;;;;4881030;29;20519;-69
2023/08/07 07:45:29;;;;;;;15.35;4.20;;;19.00;99.90;;;;;;4880225;29;20041;-69
2023/08/07 07:47:55;;;;;;;9.15;2.85;;;;;;;;;;4879407;29;20052;-70
2023/08/07 07:50:21;;;;;;;12.27;3.33;;;18.30;99.90;;;;;;4881308;29;20071;-69
2023/08/07 07:52:47;;;;;;;11.77;3.30;;;;;;;;;;4900016;29;20036;-69
2023/08/07 07:55:13;;;;;;;12.05;3.67;;;18.30;99.90;;;;;;4888118;29;20054;-70
2023/08/07 07:57:40;;;;;;;14.98;3.55;;;18.60;99.90;;;;;;4880870;29;20085;-70
2023/08/07 08:00:10;;;;;;;9.23;3.58;;;18.30;99.90;;;;;;4864740;29;20044;-70
2023/08/07 08:02:40;;;;;;;10.55;3.20;;;18.80;99.90;;;;;;4878008;29;20070;-70
2023/08/07 08:05:07;;;;;;;19.58;4.07;;;18.60;99.90;;;;;;4880738;29;20095;-69
2023/08/07 08:07:34;;;;;;;11.10;3.47;;;18.70;99.90;;;;;;4897338;29;20045;-69
2023/08/07 08:10:00;;;;;;;9.48;3.08;;;18.70;99.90;;;;;;4880082;29;20501;-69
2023/08/07 08:12:26;;;;;;;12.57;3.42;;;18.90;99.90;;;;;;4880036;29;20036;-69
2023/08/07 08:14:51;;;;;;;12.40;3.28;;;19.10;99.90;;;;;;4880372;29;20156;-69
2023/08/07 08:17:17;;;;;;;15.05;3.17;;;19.50;99.90;;;;;;4881049;29;20465;-69
2023/08/07 08:19:43;;;;;;;11.25;3.47;;;19.20;99.90;;;;;;4897388;29;20481;-69
2023/08/07 08:22:09;;;;;;;13.60;3.63;;;;;;;;;;4897428;29;20043;-69
2023/08/07 08:24:35;;;;;;;10.55;2.72;;;;;;;;;;4880654;29;20036;-69
2023/08/07 08:27:01;;;;;;;16.85;3.03;;;;;;;;;;4897063;29;20048;-69
2023/08/07 08:29:28;;;;;;;12.90;2.90;;;19.70;99.90;;;;;;4880735;29;20051;-69
2023/08/07 08:31:55;;;;;;;10.80;3.25;;;19.80;99.90;;;;;;4896666;29;20048;-70
2023/08/07 08:34:21;;;;;;;9.02;2.55;;;20.10;99.90;;;;;;4881127;29;20090;-69
2023/08/07 08:36:47;;;;;;;7.72;2.13;;;20.20;99.90;;;;;;4880574;29;20227;-69
2023/08/07 08:39:13;;;;;;;11.43;3.33;;;20.20;99.90;;;;;;4877245;29;20041;-69
2023/08/07 08:41:41;;;;;;;7.65;2.55;;;20.20;99.90;;;;;;4861781;29;20081;-69
2023/08/07 08:44:09;;;;;;;7.65;2.17;;;20.30;99.90;;;;;;4894681;29;20056;-70
2023/08/07 08:46:36;;;;;;;11.32;2.58;;;20.30;99.90;;;;;;4880341;29;20547;-70
2023/08/07 08:49:03;;;;;;;10.18;2.35;;;20.60;99.90;;;;;;4880077;29;20540;-68
2023/08/07 08:51:30;;;;;;;10.50;2.38;;;20.70;99.90;;;;;;4876672;29;20046;-69
2023/08/07 08:53:57;;;;;;;6.00;2.55;;;;;;;;;;4861848;29;20087;-70
2023/08/07 08:56:23;;;;;;;7.93;2.03;;;20.60;99.90;;;;;;4868078;29;20428;-70
2023/08/07 08:58:52;;;;;;;9.15;2.00;;;20.60;99.90;;;;;;4896947;29;20055;-70
2023/08/07 09:01:18;;;;;;;6.57;1.80;;;20.50;99.90;;;;;;4879190;29;20583;-69
2023/08/07 09:03:47;;;;;;;9.88;2.25;;;20.70;99.90;;;;;;4874407;29;20048;-69
2023/08/07 09:06:13;;;;;;;8.02;2.28;;;;;;;;;;4858861;29;20509;-69
2023/08/07 09:08:42;;;;;;;7.13;2.30;;;20.80;99.90;;;;;;4874379;29;20044;-69
2023/08/07 09:11:08;;;;;;;8.38;1.98;;;20.80;99.90;;;;;;4879882;29;20045;-70
2023/08/07 09:13:37;;;;;;;9.88;2.10;;;21.00;99.90;;;;;;4884203;29;20039;-69
2023/08/07 09:16:06;;;;;;;7.82;2.33;;;21.20;99.90;;;;;;4876342;29;20468;-70
2023/08/07 09:18:32;;;;;;;8.73;2.75;;;21.10;99.90;;;;;;4877784;29;20409;-69
2023/08/07 09:20:58;;;;;;;7.60;2.28;;;20.80;99.90;;;;;;4869137;29;20052;-68
2023/08/07 09:23:24;;;;;;;13.73;3.30;;;20.60;99.90;;;;;;4896179;29;20079;-69
2023/08/07 09:26:03;;;;;;;11.55;2.60;;;20.50;99.90;;;;;;4879227;29;20401;-69
2023/08/07 09:28:30;;;;;;;8.05;2.40;;;20.20;99.90;;;;;;4876929;29;20612;-69
2023/08/07 09:30:56;;;;;;;9.35;2.60;;;20.60;99.90;;;;;;4879652;29;20080;-70
2023/08/07 09:33:29;;;;;;;9.90;2.63;;;20.30;99.90;;;;;;4878222;29;20083;-69
2023/08/07 09:35:59;;;;;;;11.40;2.83;;;20.70;99.90;;;;;;4878417;29;20055;-69
2023/08/07 09:38:29;;;;;;;9.30;2.97;;;20.70;99.90;;;;;;4878442;29;20069;-69
2023/08/07 09:40:58;;;;;;;10.75;2.22;;;20.90;99.90;;;;;;4863368;29;20390;-69
2023/08/07 09:43:24;;;;;;;7.88;2.38;;;21.20;99.90;;;;;;4895489;29;20080;-70
2023/08/07 09:45:50;;;;;;;6.57;2.63;;;;;;;;;;4878785;29;20548;-69
2023/08/07 09:48:28;;;;;;;10.73;2.40;;;21.00;99.90;;;;;;4862659;29;20079;-70
2023/08/07 09:50:54;;;;;;;8.23;3.03;;;21.20;99.90;;;;;;4877348;29;20049;-69
2023/08/07 09:53:26;;;;;;;12.90;2.50;;;21.00;99.90;;;;;;4878180;29;20405;-70
2023/08/07 09:55:55;;;;;;;17.80;3.17;;;20.70;99.90;;;;;;4862630;29;20037;-70
2023/08/07 09:58:21;;;;;;;11.70;2.50;;;20.50;99.90;;;;;;4893110;29;20044;-69
2023/08/07 10:00:52;;;;;;;6.32;2.60;;;20.90;99.90;;;;;;4879281;29;20092;-69
2023/08/07 10:03:19;;;;;;;7.50;2.45;;;20.60;99.90;;;;;;4879114;29;20056;-69
2023/08/07 10:05:45;;;;;;;12.27;2.58;;;20.50;99.90;;;;;;4879207;29;20044;-70
2023/08/07 10:08:12;;;;;;;11.90;2.10;;;20.40;99.90;;;;;;4880227;29;20709;-69
2023/08/07 10:10:38;;;;;;;7.35;2.47;;;20.60;99.90;;;;;;4882819;29;20442;-70
2023/08/07 10:13:05;;;;;;;12.73;2.83;;;20.60;99.90;;;;;;4882564;29;20040;-69
2023/08/07 10:15:32;;;;;;;10.10;3.10;;;20.50;99.90;;;;;;4857129;29;20565;-69
2023/08/07 10:17:58;;;;;;;7.30;3.22;;;20.30;99.90;;;;;;4862039;29;20087;-69
2023/08/07 10:20:29;;;;;;;8.30;2.50;;;20.30;99.90;;;;;;4892643;29;20488;-69
2023/08/07 10:23:08;;;;;;;8.45;2.65;;;20.20;99.90;;;;;;4869222;29;20190;-70
2023/08/07 10:25:43;;;;;;;9.13;2.63;;;20.20;99.90;;;;;;4871404;29;20076;-69
2023/08/07 10:28:14;;;;;;;7.07;1.92;;;20.40;99.90;;;;;;4889103;29;20596;-70
2023/08/07 10:30:42;;;;;;;8.80;2.40;;;20.60;99.90;;;;;;4870385;29;20048;-70
2023/08/07 10:33:09;;;;;;;6.35;2.13;;;20.70;99.90;;;;;;4868557;29;20049;-70
2023/08/07 10:35:35;;;;;;;7.38;2.13;;;21.00;99.90;;;;;;4871402;29;20092;-68
2023/08/07 10:38:09;;;;;;;8.98;2.28;;;21.60;99.90;;;;;;4879201;29;20092;-69
2023/08/07 10:40:53;;;;;;;5.00;2.30;;;21.80;99.90;;;;;;4868946;29;20764;-69
2023/08/07 10:43:19;;;;;;;7.72;2.67;;;21.30;99.90;;;;;;4870251;29;20100;-69
2023/08/07 10:45:44;;;;;;;7.57;2.72;;;21.10;99.90;;;;;;4863674;29;20044;-69
2023/08/07 10:48:12;;;;;;;3.80;1.83;;;21.50;99.90;;;;;;4869060;29;20048;-70
2023/08/07 10:50:57;;;;;;;7.57;1.95;;;21.70;99.90;;;;;;4869779;29;20513;-70
2023/08/07 10:53:37;;;;;;;5.18;1.65;;;21.60;99.90;;;;;;4876170;29;20041;-70
2023/08/07 10:56:08;;;;;;;6.00;1.70;;;21.40;99.90;;;;;;4880825;29;20460;-70
2023/08/07 10:58:36;;;;;;;6.63;2.08;;;21.50;99.90;;;;;;4880817;29;20052;-70
2023/08/07 11:01:24;;;;;;;5.50;1.40;;;21.50;99.90;;;;;;4881890;29;20056;-69
2023/08/07 11:03:54;;;;;;;6.80;1.80;;;21.60;99.90;;;;;;4877610;29;20063;-69
2023/08/07 11:06:24;;;;;;;4.97;1.70;;;21.50;99.90;;;;;;4880497;29;20045;-70
2023/08/07 11:08:50;;;;;;;3.97;1.70;;;21.80;99.90;;;;;;4882171;29;20048;-70
2023/08/07 11:11:16;;;;;;;11.73;2.08;;;21.80;99.90;;;;;;4898231;29;20029;-70
2023/08/07 11:13:41;;;;;;;7.75;1.80;;;21.40;99.90;;;;;;4898112;29;20047;-70
2023/08/07 11:16:07;;;;;;;6.65;1.83;;;21.30;99.90;;;;;;4881646;29;20040;-70
2023/08/07 11:18:35;;;;;;;6.57;1.85;;;21.60;99.90;;;;;;4897650;29;20068;-70
2023/08/07 11:21:01;;;;;;;6.22;1.65;;;22.20;99.90;;;;;;4897574;29;20052;-70
2023/08/07 11:23:27;;;;;;;5.65;1.88;;;21.60;99.90;;;;;;4879040;29;20097;-70
2023/08/07 11:25:53;;;;;;;7.47;2.00;;;21.50;99.90;;;;;;4863206;29;20127;-70
2023/08/07 11:28:20;;;;;;;8.80;1.90;;;21.40;99.90;;;;;;4863193;29;20497;-70
2023/08/07 11:30:50;;;;;;;7.75;2.17;;;21.40;99.90;;;;;;4877992;29;20044;-70
2023/08/07 11:33:21;;;;;;;11.18;2.45;;;21.70;99.90;;;;;;4895792;29;20033;-70
2023/08/07 11:35:48;;;;;;;5.55;2.58;;;21.60;99.90;;;;;;4881286;29;20531;-70
2023/08/07 11:38:33;;;;;;;8.30;2.70;;;21.50;99.90;;;;;;4897836;29;20055;-70
2023/08/07 11:41:03;;;;;;;9.65;2.15;;;21.60;99.90;;;;;;4863097;29;20077;-70
2023/08/07 11:43:35;;;;;;;4.93;2.10;;;21.50;99.90;;;;;;4862519;29;20052;-70
2023/08/07 11:46:03;;;;;;;5.47;2.20;;;21.20;99.90;;;;;;4863204;29;20461;-70
2023/08/07 11:48:30;;;;;;;9.30;2.83;;;21.10;99.90;;;;;;4862763;29;20313;-71
2023/08/07 11:50:57;;;;;;;10.30;2.72;;;21.00;99.90;;;;;;4879670;29;20041;-70
2023/08/07 11:53:25;;;;;;;10.07;2.65;;;19.70;99.90;;;;;;4862655;29;20052;-70
2023/08/07 11:55:58;;;;;;;13.27;2.85;;;19.60;99.90;;;;;;4862700;29;20041;-70
2023/08/07 11:58:24;;;;;;;;;;;19.60;99.90;;;;;;4868979;29;20051;-69
2023/08/07 12:00:50;;;;;;;12.10;3.10;;;19.50;99.90;;;;;;4881286;29;19923;-69
2023/08/07 12:03:29;;;;;;;9.70;2.72;;;19.90;99.90;;;;;;4898000;29;20176;-70
2023/08/07 12:05:57;;;;;;;8.50;2.20;;;19.60;99.90;;;;;;4881282;29;20055;-70
2023/08/07 12:08:24;;;;;;;9.70;2.40;;;19.70;99.90;;;;;;4897596;29;20036;-69
2023/08/07 12:10:54;;;;;;;8.88;2.80;;;19.80;99.90;;;;;;4880677;29;20048;-70
2023/08/07 12:13:29;;;;;;;5.93;2.58;;;20.10;99.90;;;;;;4865078;29;20119;-70
2023/08/07 12:15:56;;;;;;;7.18;2.13;;;20.40;99.90;;;;;;4897184;29;20079;-70
2023/08/07 12:18:23;;;;;;;6.68;3.33;;;20.40;99.90;;;;;;4895387;29;20076;-70
2023/08/07 12:20:51;;;;;;;8.88;1.70;;;20.20;99.90;;;;;;4880968;29;20048;-70
2023/08/07 12:23:18;;;;;;;7.22;2.20;;;20.10;99.90;;;;;;4880690;29;20497;-70
2023/08/07 12:25:44;;;;;;;5.45;1.90;;;20.10;99.90;;;;;;4897343;29;20404;-70
2023/08/07 12:28:10;;;;;;;8.18;2.33;;;20.80;99.90;;;;;;4880708;29;20059;-70
2023/08/07 12:30:37;;;;;;;5.70;2.25;;;20.90;99.90;;;;;;4897173;29;20123;-69
2023/08/07 12:33:04;;;;;;;7.25;2.15;;;20.70;99.90;;;;;;4880502;29;20488;-70
2023/08/07 12:35:30;;;;;;;6.70;2.97;;;20.80;99.90;;;;;;4880684;29;20128;-70
2023/08/07 12:37:56;;;;;;;7.38;2.30;;;20.90;99.90;;;;;;4880615;29;20505;-70
2023/08/07 12:40:23;;;;;;;12.60;2.53;;;20.50;99.90;;;;;;4880321;29;20041;-69
2023/08/07 12:42:49;;;;;;;7.60;2.00;;;20.70;99.90;;;;;;4880466;29;20040;-71
2023/08/07 12:45:16;;;;;;;5.57;1.88;;;20.80;99.90;;;;;;4880775;29;20424;-70
2023/08/07 12:47:42;;;;;;;4.40;2.00;;;20.90;99.90;;;;;;4880349;29;20108;-70
2023/08/07 12:50:08;;;;;;;5.53;2.78;;;21.20;99.90;;;;;;4880180;29;20045;-71
2023/08/07 12:52:34;;;;;;;9.45;2.58;;;21.30;99.90;;;;;;4864767;29;20037;-71